Time;durP1;ratioP1;P1;durP2;ratioP2;P2;SDS_P1;SDS_P2;PMS_P1;PMS_P2;Temp;Humidity;BMP_temperature;BMP_pressure;BME280_temperature;BME280_humidity;BME280_pressure;Samples;Min_cycle;Max_cycle;Signal;HPM_P1;HPM_P2
2022/12/09 00:01:11;;;;;;;17.90;11.88;;;;;;;19.45;57.15;100437.84;5036173;28;20045;-76
2022/12/09 00:03:39;;;;;;;17.10;11.55;;;;;;;19.46;57.39;100450.28;5035300;28;20046;-76
2022/12/09 00:06:13;;;;;;;18.58;12.48;;;;;;;19.47;58.35;100451.13;5036168;28;20052;-76
2022/12/09 00:08:41;;;;;;;13.43;10.70;;;;;;;19.48;58.71;100447.44;5033980;28;20045;-75
2022/12/09 00:11:09;;;;;;;14.25;11.15;;;;;;;19.46;59.01;100439.53;5036123;28;20046;-76
2022/12/09 00:13:36;;;;;;;14.00;11.00;;;;;;;19.47;58.75;100440.38;5035896;28;20046;-76
2022/12/09 00:16:09;;;;;;;13.02;11.32;;;;;;;19.46;58.95;100431.50;5035907;28;20045;-76
2022/12/09 00:18:37;;;;;;;13.30;11.10;;;;;;;19.46;58.71;100436.84;5036195;28;20057;-76
2022/12/09 00:21:18;;;;;;;13.90;10.85;;;;;;;19.46;58.08;100425.28;5036040;28;20042;-76
2022/12/09 00:23:47;;;;;;;15.15;11.63;;;;;;;19.46;57.89;100419.91;5035866;28;20046;-76
2022/12/09 00:26:15;;;;;;;12.88;11.50;;;;;;;19.45;58.14;100421.75;5035533;28;20050;-76
2022/12/09 00:28:43;;;;;;;14.27;11.60;;;;;;;19.45;58.36;100416.38;5035993;28;20060;-76
2022/12/09 00:31:13;;;;;;;14.38;11.55;;;;;;;19.45;58.14;100426.28;5034230;28;20060;-76
2022/12/09 00:33:41;;;;;;;13.75;12.20;;;;;;;19.45;57.95;100428.97;5035211;28;20389;-76
2022/12/09 00:36:13;;;;;;;13.45;11.23;;;;;;;19.45;57.81;100428.97;5033572;28;20073;-76
2022/12/09 00:38:41;;;;;;;15.77;12.38;;;;;;;19.45;57.29;100431.63;5035795;28;20053;-77
2022/12/09 00:41:10;;;;;;;11.82;10.45;;;;;;;19.44;57.35;100436.13;5035129;28;20082;-77
2022/12/09 00:43:37;;;;;;;15.00;12.10;;;;;;;19.43;56.76;100426.41;5036049;28;20049;-76
2022/12/09 00:46:05;;;;;;;15.43;11.73;;;;;;;19.45;56.58;100431.63;5017428;28;20053;-76
2022/12/09 00:48:37;;;;;;;14.18;12.10;;;;;;;19.44;56.29;100429.91;5035570;28;20048;-77
2022/12/09 00:51:06;;;;;;;12.57;11.27;;;;;;;19.45;56.36;100434.31;5033324;28;20049;-76
2022/12/09 00:53:33;;;;;;;14.38;11.00;;;;;;;19.44;56.66;100432.59;5035407;28;20072;-76
2022/12/09 00:56:01;;;;;;;15.13;12.55;;;;;;;19.44;56.58;100433.44;5035030;28;20052;-76
2022/12/09 00:58:28;;;;;;;14.68;11.77;;;;;;;19.44;56.30;100433.44;5035385;28;20049;-76
2022/12/09 01:00:56;;;;;;;17.25;11.52;;;;;;;19.44;56.32;100438.81;5035143;28;20056;-76
2022/12/09 01:03:23;;;;;;;16.05;11.68;;;;;;;19.45;56.29;100443.22;5035337;28;20053;-76
2022/12/09 01:05:51;;;;;;;14.00;11.32;;;;;;;19.44;56.46;100438.81;5034354;28;20054;-76
2022/12/09 01:08:18;;;;;;;14.73;11.32;;;;;;;19.44;56.64;100441.50;5034927;28;20052;-76
2022/12/09 01:10:46;;;;;;;15.02;12.73;;;;;;;19.43;56.25;100439.81;5034869;28;20057;-75
2022/12/09 01:13:15;;;;;;;13.05;11.07;;;;;;;19.43;55.79;100437.13;5035135;28;20056;-76
2022/12/09 01:15:42;;;;;;;14.00;11.77;;;;;;;19.43;56.65;100434.44;5035225;28;20381;-76
2022/12/09 01:18:12;;;;;;;13.52;11.60;;;;;;;19.43;57.05;100438.97;5034810;28;20057;-76
2022/12/09 01:20:40;;;;;;;15.18;11.57;;;;;;;19.43;56.77;100428.22;5033081;28;20045;-75
2022/12/09 01:23:07;;;;;;;15.80;12.75;;;;;;;19.43;56.60;100417.50;5033897;28;20045;-75
2022/12/09 01:25:37;;;;;;;15.05;12.45;;;;;;;19.41;55.96;100414.13;5034903;28;20064;-76
2022/12/09 01:28:04;;;;;;;13.93;12.27;;;;;;;19.42;56.94;100405.91;5034842;28;20496;-76
2022/12/09 01:30:31;;;;;;;13.15;11.57;;;;;;;19.42;56.69;100418.50;5034858;28;20045;-76
2022/12/09 01:32:59;;;;;;;14.85;11.88;;;;;;;19.41;57.06;100408.75;5034740;28;20045;-76
2022/12/09 01:35:27;;;;;;;12.57;11.07;;;;;;;19.42;57.01;100395.19;5033566;28;20405;-76
2022/12/09 01:37:54;;;;;;;13.82;11.50;;;;;;;19.41;56.42;100392.66;5033887;28;20052;-76
2022/12/09 01:40:22;;;;;;;13.10;11.40;;;;;;;19.40;57.39;100380.19;5033938;28;20516;-76
2022/12/09 01:42:50;;;;;;;13.65;11.45;;;;;;;19.41;57.51;100393.50;5034569;28;20056;-76
2022/12/09 01:45:29;;;;;;;14.35;11.40;;;;;;;19.40;57.67;100386.41;5032837;28;20061;-76
2022/12/09 01:48:02;;;;;;;12.70;11.20;;;;;;;19.40;57.79;100388.25;5032653;28;20056;-77
2022/12/09 01:50:30;;;;;;;;;;;;;;;19.40;57.89;100380.19;5032789;28;20049;-76
2022/12/09 01:52:58;;;;;;;13.18;11.32;;;;;;;19.39;57.75;100371.28;5033980;28;19925;-76
2022/12/09 01:55:26;;;;;;;13.18;10.88;;;;;;;19.39;57.74;100370.44;5032291;28;20060;-76
2022/12/09 01:57:54;;;;;;;12.90;11.52;;;;;;;19.38;58.00;100360.72;5034379;28;20049;-76
2022/12/09 02:00:21;;;;;;;11.63;10.43;;;;;;;19.38;57.61;100355.34;5049210;28;20406;-76
2022/12/09 02:02:52;;;;;;;14.15;10.93;;;;;;;19.37;58.65;100354.50;5031544;28;20080;-76
2022/12/09 02:05:23;;;;;;;11.43;10.20;;;;;;;19.36;58.44;100347.41;5032248;28;20053;-76
2022/12/09 02:07:57;;;;;;;12.05;10.68;;;;;;;19.36;58.33;100346.56;5032076;28;20490;-76
2022/12/09 02:10:26;;;;;;;11.23;9.13;;;;;;;19.36;58.91;100347.41;5032093;28;20060;-76
2022/12/09 02:13:21;;;;;;;11.15;9.75;;;;;;;19.37;59.06;100353.66;5033882;28;20050;-76
2022/12/09 02:15:56;;;;;;;11.65;10.13;;;;;;;19.36;59.03;100341.22;5032075;28;20053;-76
2022/12/09 02:18:38;;;;;;;12.20;10.60;;;;;;;19.36;59.19;100346.56;5032185;28;20505;-76
2022/12/09 02:21:13;;;;;;;11.38;9.65;;;;;;;19.35;59.15;100358.31;5048808;28;20075;-76
2022/12/09 02:23:50;;;;;;;11.93;9.30;;;;;;;19.36;59.14;100351.94;5032246;28;20516;-76
2022/12/09 02:26:44;;;;;;;11.27;9.77;;;;;;;19.36;59.05;100346.56;5032591;28;20050;-76
2022/12/09 02:29:38;;;;;;;11.75;9.90;;;;;;;19.35;59.40;100336.84;5031969;28;20425;-76
2022/12/09 02:32:30;;;;;;;12.30;10.18;;;;;;;19.34;58.87;100337.84;5032275;28;20068;-76
2022/12/09 02:35:15;;;;;;;10.50;9.40;;;;;;;19.34;58.89;100333.31;5034045;28;20053;-76
2022/12/09 02:37:53;;;;;;;10.75;9.38;;;;;;;19.35;58.69;100336.84;5029097;28;20390;-76
2022/12/09 02:40:25;;;;;;;10.60;8.98;;;;;;;19.34;58.70;100335.16;5016016;28;20397;-76
2022/12/09 02:42:54;;;;;;;9.55;8.60;;;;;;;19.33;58.61;100328.09;5032091;28;20057;-75
2022/12/09 02:45:25;;;;;;;11.02;9.40;;;;;;;19.33;58.60;100320.03;5031986;28;20398;-75
2022/12/09 02:47:57;;;;;;;10.02;8.52;;;;;;;19.32;58.26;100303.06;5032167;28;20061;-76
2022/12/09 02:50:30;;;;;;;11.43;9.43;;;;;;;19.32;58.31;100297.69;5033598;28;20045;-76
2022/12/09 02:53:03;;;;;;;9.10;8.15;;;;;;;19.32;58.32;100292.34;5032157;28;20045;-76
2022/12/09 02:55:33;;;;;;;;;;;;;;;19.32;57.92;100275.38;5032119;28;20544;-76
2022/12/09 02:58:02;;;;;;;9.60;8.60;;;;;;;19.31;58.15;100276.38;5031905;28;19921;-76
2022/12/09 03:00:32;;;;;;;10.88;8.80;;;;;;;19.31;57.71;100273.72;5031922;28;20405;-76
2022/12/09 03:03:03;;;;;;;9.60;8.60;;;;;;;19.31;57.75;100287.13;5033392;28;20050;-76
2022/12/09 03:05:48;;;;;;;9.82;8.60;;;;;;;19.30;57.62;100285.44;5033144;28;20049;-76
2022/12/09 03:08:34;;;;;;;11.43;8.55;;;;;;;19.31;57.30;100271.03;5033326;28;20385;-75
2022/12/09 03:11:05;;;;;;;10.38;8.73;;;;;;;19.29;57.37;100268.50;5033055;28;20041;-76
2022/12/09 03:14:11;;;;;;;10.57;9.48;;;;;;;19.28;57.24;100280.19;5034000;28;20041;-76
2022/12/09 03:16:43;;;;;;;10.82;8.77;;;;;;;19.29;56.96;100265.81;5037065;28;20405;-75
2022/12/09 03:19:21;;;;;;;11.27;9.55;;;;;;;19.29;57.06;100248.88;5037123;28;20400;-76
2022/12/09 03:21:52;;;;;;;10.82;9.18;;;;;;;19.27;56.97;100249.84;5037207;28;20056;-76
2022/12/09 03:24:23;;;;;;;12.20;10.32;;;;;;;19.28;56.36;100242.63;5037172;28;20045;-76
2022/12/09 03:26:52;;;;;;;10.02;8.93;;;;;;;19.27;56.26;100236.41;5035824;28;20060;-75
2022/12/09 03:29:25;;;;;;;10.40;9.18;;;;;;;19.27;56.20;100233.72;5037253;28;20045;-76
2022/12/09 03:31:54;;;;;;;;;;;;;;;19.27;56.55;100236.41;5037165;28;20046;-76
2022/12/09 03:34:27;;;;;;;10.23;9.05;;;;;;;19.28;56.26;100237.25;5036756;28;19928;-76
2022/12/09 03:36:57;;;;;;;9.88;8.82;;;;;;;19.26;56.30;100221.31;5036116;28;20042;-76
2022/12/09 03:39:29;;;;;;;11.65;9.07;;;;;;;19.27;56.23;100230.19;5036093;28;20060;-75
2022/12/09 03:42:02;;;;;;;10.70;9.00;;;;;;;19.26;56.05;100229.38;5036713;28;20046;-75
2022/12/09 03:44:43;;;;;;;10.48;8.73;;;;;;;19.27;56.22;100232.88;5036712;28;20057;-76
2022/12/09 03:47:11;;;;;;;9.07;8.02;;;;;;;19.25;55.96;100227.69;5036771;28;20049;-76
2022/12/09 03:49:39;;;;;;;9.82;8.73;;;;;;;19.26;55.88;100215.09;5036445;28;20049;-76
2022/12/09 03:52:11;;;;;;;10.23;9.13;;;;;;;19.27;55.78;100214.09;5036361;28;20041;-76
2022/12/09 03:54:48;;;;;;;10.77;9.10;;;;;;;19.26;55.75;100215.94;5036878;28;20393;-76
2022/12/09 03:57:18;;;;;;;10.32;8.63;;;;;;;19.26;55.44;100207.91;5036700;28;20049;-76
2022/12/09 03:59:58;;;;;;;10.13;8.90;;;;;;;19.26;55.54;100215.09;5036537;28;20045;-76
2022/12/09 04:02:26;;;;;;;11.02;8.98;;;;;;;19.26;55.48;100202.53;5036486;28;20049;-76
2022/12/09 04:04:54;;;;;;;9.25;8.25;;;;;;;19.25;55.24;100187.44;5036163;28;20049;-75
2022/12/09 04:07:22;;;;;;;11.73;9.20;;;;;;;19.24;55.31;100191.09;5036507;28;20053;-75
2022/12/09 04:09:49;;;;;;;11.23;9.05;;;;;;;19.25;55.40;100179.38;5036039;28;20045;-75
2022/12/09 04:12:17;;;;;;;10.98;9.40;;;;;;;19.26;54.84;100166.81;5036158;28;20386;-76
2022/12/09 04:14:45;;;;;;;10.20;8.98;;;;;;;19.24;54.83;100164.28;5036163;28;20049;-76
2022/12/09 04:17:12;;;;;;;11.27;8.82;;;;;;;19.25;54.50;100157.91;5035967;28;20053;-76
2022/12/09 04:19:40;;;;;;;10.38;8.82;;;;;;;19.25;54.61;100155.22;5035879;28;20393;-75
2022/12/09 04:22:07;;;;;;;9.82;8.82;;;;;;;19.25;54.54;100131.06;5035871;28;20072;-75
2022/12/09 04:24:35;;;;;;;10.55;9.23;;;;;;;19.25;54.39;100133.75;5035829;28;20046;-76
2022/12/09 04:27:03;;;;;;;10.15;8.98;;;;;;;19.24;54.39;100134.75;5035887;28;20048;-76
2022/12/09 04:29:30;;;;;;;10.13;9.07;;;;;;;19.25;54.30;100135.59;5035802;28;20049;-76
2022/12/09 04:31:57;;;;;;;10.93;9.63;;;;;;;19.25;54.32;100146.34;5035991;28;20052;-76
2022/12/09 04:34:25;;;;;;;10.43;9.32;;;;;;;19.24;54.07;100134.75;5035572;28;20045;-76
2022/12/09 04:36:53;;;;;;;11.93;9.65;;;;;;;19.24;53.92;100128.50;5035645;28;20041;-77
2022/12/09 04:39:20;;;;;;;10.48;9.27;;;;;;;19.23;54.11;100125.00;5034520;28;20048;-76
2022/12/09 04:41:47;;;;;;;10.43;8.95;;;;;;;19.23;54.27;100116.94;5035351;28;20072;-76
2022/12/09 04:44:15;;;;;;;11.15;9.43;;;;;;;19.25;54.17;100119.50;5035612;28;20401;-76
2022/12/09 04:46:42;;;;;;;9.98;8.65;;;;;;;19.22;53.99;100107.22;5035409;28;20045;-76
2022/12/09 04:49:10;;;;;;;10.93;9.30;;;;;;;19.24;54.05;100123.16;5035205;28;20045;-76
2022/12/09 04:51:38;;;;;;;10.27;8.25;;;;;;;19.23;53.90;100110.72;5035208;28;20045;-76
2022/12/09 04:54:11;;;;;;;10.70;9.15;;;;;;;19.23;53.77;100114.25;5035243;28;20415;-76
2022/12/09 04:56:39;;;;;;;11.90;10.40;;;;;;;19.23;53.52;100110.72;5035474;28;20052;-76
2022/12/09 04:59:07;;;;;;;11.43;9.73;;;;;;;19.22;53.88;100117.94;5035156;28;20382;-76
2022/12/09 05:01:35;;;;;;;11.27;9.65;;;;;;;19.22;53.52;100112.56;5035183;28;20042;-76
2022/12/09 05:04:02;;;;;;;9.80;8.77;;;;;;;19.23;53.40;100113.41;5035007;28;20045;-76
2022/12/09 05:06:31;;;;;;;10.95;9.80;;;;;;;19.23;53.61;100106.22;5035042;28;20053;-76
2022/12/09 05:08:59;;;;;;;11.88;9.75;;;;;;;19.24;54.00;100096.31;5034995;28;20409;-76
2022/12/09 05:11:26;;;;;;;11.57;9.77;;;;;;;19.23;53.49;100090.09;5033695;28;20041;-76
2022/12/09 05:13:54;;;;;;;10.80;9.30;;;;;;;19.23;53.46;100098.16;5035044;28;20049;-76
2022/12/09 05:16:22;;;;;;;12.13;9.90;;;;;;;19.23;53.12;100095.47;5035131;28;20056;-76
2022/12/09 05:18:49;;;;;;;10.65;9.10;;;;;;;19.23;53.02;100090.09;5034677;28;20072;-76
2022/12/09 05:21:19;;;;;;;12.07;10.77;;;;;;;19.24;52.78;100093.63;5034716;28;20396;-76
2022/12/09 05:23:47;;;;;;;10.65;9.50;;;;;;;19.23;53.35;100092.78;5034674;28;20512;-76
2022/12/09 05:26:18;;;;;;;12.30;9.68;;;;;;;19.23;53.29;100090.09;5034697;28;20049;-76
2022/12/09 05:28:47;;;;;;;12.75;9.55;;;;;;;19.23;52.64;100091.94;5034627;28;20053;-76
2022/12/09 05:31:18;;;;;;;11.15;9.10;;;;;;;19.23;52.77;100083.91;5032724;28;20045;-76
2022/12/09 05:33:47;;;;;;;9.90;8.77;;;;;;;19.23;52.65;100076.69;5034602;28;20057;-76
2022/12/09 05:36:18;;;;;;;10.70;9.55;;;;;;;19.23;52.93;100079.38;5034392;28;20056;-76
2022/12/09 05:38:47;;;;;;;11.75;8.55;;;;;;;19.23;52.71;100073.16;5034212;28;20394;-76
2022/12/09 05:41:16;;;;;;;10.70;9.45;;;;;;;19.23;52.64;100068.63;5033461;28;20417;-75
2022/12/09 05:43:45;;;;;;;10.57;9.25;;;;;;;19.22;52.37;100072.31;5034375;28;20053;-76
2022/12/09 05:46:14;;;;;;;11.77;9.50;;;;;;;19.22;52.65;100072.31;5034111;28;20041;-76
2022/12/09 05:48:42;;;;;;;11.32;9.77;;;;;;;19.22;52.60;100058.06;5033309;28;20045;-76
2022/12/09 05:51:20;;;;;;;10.43;9.07;;;;;;;19.22;52.52;100066.13;5034262;28;20516;-76
2022/12/09 05:53:47;;;;;;;11.07;9.25;;;;;;;19.22;52.47;100061.59;5034267;28;20052;-76
2022/12/09 05:56:16;;;;;;;10.25;8.60;;;;;;;19.22;52.59;100066.13;5034138;28;20048;-75
2022/12/09 05:58:44;;;;;;;10.73;8.63;;;;;;;19.22;52.43;100060.75;5033955;28;20489;-76
2022/12/09 06:01:13;;;;;;;11.10;9.10;;;;;;;19.21;52.34;100059.91;5033823;28;20045;-76
2022/12/09 06:03:41;;;;;;;10.65;9.30;;;;;;;19.21;52.24;100059.06;5033880;28;20060;-75
2022/12/09 06:06:12;;;;;;;10.90;8.93;;;;;;;19.21;52.34;100049.19;5033930;28;20413;-75
2022/12/09 06:08:41;;;;;;;10.48;8.65;;;;;;;19.20;52.35;100042.13;5033862;28;20046;-76
2022/12/09 06:11:12;;;;;;;11.82;9.38;;;;;;;19.20;52.20;100022.47;5032627;28;20409;-76
2022/12/09 06:13:41;;;;;;;10.57;9.43;;;;;;;19.20;52.13;100009.06;5033949;28;20053;-76
2022/12/09 06:16:09;;;;;;;11.70;9.38;;;;;;;19.20;52.41;100007.25;5033579;28;20049;-76
2022/12/09 06:18:37;;;;;;;10.63;9.52;;;;;;;19.19;52.17;100008.22;5034007;28;20045;-76
2022/12/09 06:21:06;;;;;;;10.35;8.73;;;;;;;19.19;52.06;100015.44;5033755;28;20045;-76
2022/12/09 06:23:35;;;;;;;11.10;9.40;;;;;;;19.19;51.93;100012.75;5033720;28;20046;-76
2022/12/09 06:26:03;;;;;;;10.93;9.00;;;;;;;19.19;52.03;100004.69;5033942;28;20052;-77
2022/12/09 06:28:31;;;;;;;9.77;7.97;;;;;;;19.18;51.92;100003.84;5033615;28;20049;-76
2022/12/09 06:30:59;;;;;;;9.15;7.50;;;;;;;19.18;51.93;100009.22;5032117;28;20049;-76
2022/12/09 06:33:27;;;;;;;10.40;8.95;;;;;;;19.18;51.72;100013.75;5033549;28;20045;-76
2022/12/09 06:36:14;;;;;;;11.10;8.65;;;;;;;19.20;52.05;100023.34;5033297;28;20049;-75
2022/12/09 06:38:42;;;;;;;10.50;8.70;;;;;;;19.19;51.95;100024.31;5033509;28;20436;-76
2022/12/09 06:41:13;;;;;;;10.18;9.07;;;;;;;19.19;51.65;100028.84;5032502;28;20397;-76
2022/12/09 06:43:40;;;;;;;9.05;8.15;;;;;;;19.18;51.84;100028.00;5033288;28;20045;-76
2022/12/09 06:46:19;;;;;;;9.52;8.50;;;;;;;19.19;51.73;100024.31;5033345;28;20045;-76
2022/12/09 06:48:47;;;;;;;10.35;8.20;;;;;;;19.19;51.74;100018.94;5031663;28;20049;-76
2022/12/09 06:51:16;;;;;;;9.93;8.48;;;;;;;19.19;51.60;100010.06;5033475;28;20050;-76
2022/12/09 06:53:44;;;;;;;9.20;7.93;;;;;;;19.19;51.60;100002.84;5033278;28;20044;-76
2022/12/09 06:56:12;;;;;;;9.98;8.48;;;;;;;19.19;51.44;100004.69;5033755;28;20056;-76
2022/12/09 06:58:42;;;;;;;9.05;8.05;;;;;;;19.19;51.81;99996.66;5032238;28;20056;-76
2022/12/09 07:01:16;;;;;;;10.95;8.43;;;;;;;19.18;51.95;99987.75;5033358;28;20053;-76
2022/12/09 07:03:46;;;;;;;10.20;8.50;;;;;;;19.18;51.73;99985.06;5033253;28;20056;-77
2022/12/09 07:06:26;;;;;;;11.10;9.00;;;;;;;19.19;51.60;99989.44;5033299;28;20045;-77
2022/12/09 07:08:56;;;;;;;10.18;8.35;;;;;;;19.18;51.63;99976.19;5033305;28;20049;-76
2022/12/09 07:11:24;;;;;;;9.65;8.68;;;;;;;19.19;51.68;99967.97;5033123;28;20041;-76
2022/12/09 07:13:52;;;;;;;10.68;9.10;;;;;;;19.18;51.67;99960.09;5032966;28;20045;-77
2022/12/09 07:16:20;;;;;;;8.68;7.80;;;;;;;19.17;51.71;99951.19;5033140;28;20049;-76
2022/12/09 07:18:48;;;;;;;9.57;7.90;;;;;;;19.18;51.77;99955.56;5033055;28;20485;-77
2022/12/09 07:21:18;;;;;;;9.73;8.57;;;;;;;19.17;51.73;99963.78;5033088;28;20050;-77
2022/12/09 07:23:47;;;;;;;10.88;8.65;;;;;;;19.17;51.76;99961.94;5032931;28;20045;-76
2022/12/09 07:26:15;;;;;;;9.65;8.35;;;;;;;19.17;51.46;99956.56;5032023;28;20490;-77
2022/12/09 07:28:45;;;;;;;10.48;8.45;;;;;;;19.18;51.60;99963.59;5033061;28;20045;-82
2022/12/09 07:31:25;;;;;;;9.95;7.93;;;;;;;19.18;52.15;99958.25;5033995;28;20474;-77
2022/12/09 07:33:55;;;;;;;9.02;7.80;;;;;;;19.18;51.98;99968.13;5032488;28;20049;-77
2022/12/09 07:36:26;;;;;;;10.15;8.15;;;;;;;19.18;51.95;99955.56;5033451;28;20049;-77
2022/12/09 07:38:55;;;;;;;8.88;7.93;;;;;;;19.18;51.83;99968.97;5033755;28;20049;-78
2022/12/09 07:41:23;;;;;;;10.40;8.07;;;;;;;19.19;51.79;99969.81;5033004;28;20046;-77
2022/12/09 07:43:52;;;;;;;9.23;7.07;;;;;;;19.19;51.81;99961.75;5033122;28;20406;-78
2022/12/09 07:46:21;;;;;;;9.68;7.32;;;;;;;19.19;51.68;99951.88;5032517;28;20134;-78
2022/12/09 07:48:49;;;;;;;7.60;6.47;;;;;;;19.18;51.50;99942.16;5033769;28;20050;-79
2022/12/09 07:51:17;;;;;;;12.60;7.90;;;;;;;19.19;51.63;99929.56;5032935;28;20048;-79
2022/12/09 07:53:46;;;;;;;11.48;7.93;;;;;;;19.19;51.38;99914.31;5032274;28;20053;-78
2022/12/09 07:56:15;;;;;;;9.70;7.70;;;;;;;19.19;51.38;99905.41;5031989;28;20064;-78
2022/12/09 07:58:46;;;;;;;8.43;6.78;;;;;;;19.20;51.38;99907.09;5032559;28;20050;-79
2022/12/09 08:01:17;;;;;;;8.32;7.45;;;;;;;19.18;51.42;99883.13;5034436;28;20049;-79
2022/12/09 08:03:47;;;;;;;9.38;7.13;;;;;;;19.18;51.61;99883.13;5035948;28;20049;-78
2022/12/09 08:06:17;;;;;;;9.02;7.75;;;;;;;19.19;51.58;99878.59;5035826;28;20041;-79
2022/12/09 08:08:46;;;;;;;9.27;6.93;;;;;;;19.18;51.65;99877.75;5036252;28;20474;-77
2022/12/09 08:11:16;;;;;;;11.38;7.82;;;;;;;19.17;49.99;99867.19;5036106;28;20037;-77
2022/12/09 08:13:44;;;;;;;10.43;9.13;;;;;;;19.15;48.83;99872.69;5035855;28;20049;-77
2022/12/09 08:16:14;;;;;;;11.68;10.20;;;;;;;19.11;48.00;99886.56;5036087;28;20061;-77
2022/12/09 08:18:43;;;;;;;12.73;10.30;;;;;;;19.09;47.57;99884.03;5036365;28;20061;-77
2022/12/09 08:21:15;;;;;;;13.75;11.10;;;;;;;19.05;47.70;99877.31;5036141;28;20050;-77
2022/12/09 08:23:43;;;;;;;10.52;9.40;;;;;;;19.03;47.79;99871.22;5035964;28;20044;-77
2022/12/09 08:26:12;;;;;;;11.45;10.25;;;;;;;19.00;47.76;99879.59;5035894;28;20072;-77
2022/12/09 08:28:40;;;;;;;11.45;9.95;;;;;;;18.98;47.00;99877.06;5035920;28;20049;-77
2022/12/09 08:31:15;;;;;;;11.60;10.40;;;;;;;18.96;46.81;99881.75;5035716;28;20053;-77
2022/12/09 08:33:43;;;;;;;11.95;10.27;;;;;;;18.93;46.40;99884.72;5035329;28;20045;-77
2022/12/09 08:36:14;;;;;;;11.18;9.98;;;;;;;18.90;46.57;99887.69;5035650;28;20226;-77
2022/12/09 08:38:42;;;;;;;11.27;9.77;;;;;;;18.88;46.35;99881.66;5036257;28;20053;-77
2022/12/09 08:41:13;;;;;;;11.65;10.43;;;;;;;18.86;46.27;99882.78;5036008;28;20061;-77
2022/12/09 08:43:42;;;;;;;13.18;11.80;;;;;;;18.83;45.74;99867.00;5035016;28;20049;-77
2022/12/09 08:46:11;;;;;;;11.98;10.48;;;;;;;18.82;46.08;99865.31;5037015;28;20045;-77
2022/12/09 08:48:40;;;;;;;12.15;10.90;;;;;;;18.80;46.01;99862.81;5036780;28;20398;-77
2022/12/09 08:51:10;;;;;;;11.45;10.25;;;;;;;18.78;46.00;99881.72;5036712;28;20052;-77
2022/12/09 08:53:38;;;;;;;18.60;10.55;;;;;;;18.77;45.92;99892.59;5036580;28;20037;-76
2022/12/09 08:56:08;;;;;;;14.00;11.27;;;;;;;18.74;45.60;99909.81;5036242;28;20057;-77
2022/12/09 08:58:36;;;;;;;12.18;10.85;;;;;;;18.74;45.68;99906.28;5035907;28;20056;-77
2022/12/09 09:01:04;;;;;;;10.70;8.73;;;;;;;18.74;46.39;99914.34;5035981;28;20052;-76
2022/12/09 09:03:32;;;;;;;12.20;8.23;;;;;;;18.76;46.73;99915.91;5034913;28;20045;-77
2022/12/09 09:06:05;;;;;;;13.50;11.90;;;;;;;18.63;45.30;99919.88;5035462;28;20054;-77
2022/12/09 09:08:38;;;;;;;16.40;13.50;;;;;;;18.40;45.47;99924.81;5035413;28;20049;-76
2022/12/09 09:11:19;;;;;;;11.95;10.65;;;;;;;18.34;46.82;99911.97;5035297;28;20049;-77
2022/12/09 09:13:50;;;;;;;9.65;8.35;;;;;;;18.38;47.85;99908.84;5035990;28;20482;-77
2022/12/09 09:16:21;;;;;;;8.70;6.80;;;;;;;18.45;48.42;99911.78;5036476;28;20056;-78
2022/12/09 09:18:49;;;;;;;7.35;6.32;;;;;;;18.49;48.64;99903.28;5036852;28;20038;-77
2022/12/09 09:21:20;;;;;;;8.80;6.05;;;;;;;18.54;48.50;99886.75;5035992;28;20056;-78
2022/12/09 09:23:49;;;;;;;8.82;5.93;;;;;;;18.57;48.68;99875.75;5035379;28;20049;-77
2022/12/09 09:26:19;;;;;;;6.43;5.32;;;;;;;18.62;48.72;99884.19;5035534;28;20045;-77
2022/12/09 09:28:48;;;;;;;6.90;5.70;;;;;;;18.65;48.61;99872.31;5035111;28;20508;-77
2022/12/09 09:31:18;;;;;;;7.45;5.28;;;;;;;18.67;48.75;99856.91;5034480;28;20417;-77
2022/12/09 09:33:47;;;;;;;6.70;5.00;;;;;;;18.69;48.65;99839.69;5034171;28;20049;-77
2022/12/09 09:36:19;;;;;;;6.13;5.15;;;;;;;18.71;48.70;99828.84;5035568;28;20053;-77
2022/12/09 09:38:48;;;;;;;5.23;4.53;;;;;;;18.73;48.29;99822.34;5035024;28;20045;-77
2022/12/09 09:41:41;;;;;;;5.40;4.47;;;;;;;18.75;48.71;99816.81;5035209;28;20049;-77
2022/12/09 09:44:42;;;;;;;5.63;4.85;;;;;;;18.75;48.57;99814.97;5035375;28;20052;-84
2022/12/09 09:47:34;;;;;;;4.57;3.92;;;;;;;18.78;48.80;99836.13;5035611;28;20049;-76
2022/12/09 09:50:25;;;;;;;4.93;4.22;;;;;;;18.79;48.80;99831.59;5035074;28;20052;-77
2022/12/09 09:52:54;;;;;;;5.93;4.30;;;;;;;18.81;48.70;99850.25;5034053;28;20481;-77
2022/12/09 09:55:36;;;;;;;6.50;4.32;;;;;;;18.82;48.73;99846.56;5034088;28;20049;-77
2022/12/09 09:58:11;;;;;;;5.25;3.88;;;;;;;18.81;48.70;99839.50;5033918;28;20045;-77
2022/12/09 10:01:02;;;;;;;5.05;4.28;;;;;;;18.82;48.70;99835.84;5034865;28;20050;-77
2022/12/09 10:04:08;;;;;;;5.15;4.28;;;;;;;18.83;48.63;99841.03;5034082;28;20037;-76
2022/12/09 10:07:24;;;;;;;4.65;3.88;;;;;;;18.83;48.65;99842.88;5033928;28;20045;-76
2022/12/09 10:10:14;;;;;;;5.88;3.85;;;;;;;18.84;48.57;99852.59;4996067;28;20429;-76
2022/12/09 10:13:03;;;;;;;4.95;3.63;;;;;;;18.85;48.48;99857.00;5012575;28;20053;-76
2022/12/09 10:15:52;;;;;;;5.20;3.45;;;;;;;18.84;48.76;99852.59;5012345;28;20066;-76
2022/12/09 10:18:27;;;;;;;4.32;3.55;;;;;;;18.85;48.63;99851.63;4995875;28;20391;-77
2022/12/09 10:20:55;;;;;;;4.18;3.70;;;;;;;18.85;48.67;99844.41;5012593;28;20062;-77
2022/12/09 10:23:25;;;;;;;4.78;3.42;;;;;;;18.84;48.78;99840.06;5012062;28;20049;-77
2022/12/09 10:25:56;;;;;;;4.10;3.30;;;;;;;18.84;48.62;99842.75;5013050;28;20177;-76
2022/12/09 10:28:40;;;;;;;4.80;3.60;;;;;;;18.86;48.66;99829.16;5013348;28;20098;-77
2022/12/09 10:31:09;;;;;;;4.15;3.40;;;;;;;18.85;48.64;99820.28;5013905;28;20050;-76
2022/12/09 10:33:38;;;;;;;3.65;3.25;;;;;;;18.86;48.69;99815.75;5012961;28;20412;-76
2022/12/09 10:36:21;;;;;;;4.72;3.50;;;;;;;18.85;48.66;99809.56;5012880;28;20058;-77
2022/12/09 10:38:49;;;;;;;4.15;3.50;;;;;;;18.86;48.73;99810.41;5013667;28;20050;-77
2022/12/09 10:44:26;;;;;;;4.82;3.80;;;;;;;18.86;48.76;99830.00;5034445;28;20038;-76
2022/12/09 10:47:06;;;;;;;4.50;3.17;;;;;;;18.86;48.83;99819.28;5034929;28;20402;-77
2022/12/09 10:49:34;;;;;;;4.38;3.22;;;;;;;18.87;48.81;99799.50;5031975;28;20060;-76
2022/12/09 10:52:03;;;;;;;3.90;3.33;;;;;;;18.86;48.97;99792.47;5032550;28;20061;-77
2022/12/09 10:54:39;;;;;;;4.00;3.20;;;;;;;18.86;48.89;99773.69;5033825;28;20056;-76
2022/12/09 10:57:12;;;;;;;4.57;3.60;;;;;;;18.87;48.72;99750.41;5032304;28;20057;-77
2022/12/09 10:59:54;;;;;;;4.10;3.15;;;;;;;18.86;48.99;99728.09;5032985;28;20049;-77
2022/12/09 11:02:22;;;;;;;3.78;3.08;;;;;;;18.87;48.75;99734.31;5033465;28;20049;-77
2022/12/09 11:04:50;;;;;;;5.25;3.38;;;;;;;18.85;48.91;99731.78;5033157;28;20049;-77
2022/12/09 11:07:21;;;;;;;4.28;3.13;;;;;;;18.86;48.99;99728.09;5033568;28;20409;-77
2022/12/09 11:10:16;;;;;;;4.20;3.28;;;;;;;18.87;48.82;99728.94;5033353;28;20045;-77
2022/12/09 11:12:50;;;;;;;4.07;3.15;;;;;;;18.87;48.78;99737.81;5011253;28;20173;-77
2022/12/09 11:15:34;;;;;;;4.32;2.78;;;;;;;18.86;48.73;99741.50;4995296;28;20410;-77
2022/12/09 11:18:03;;;;;;;;;;;;;;;18.87;48.78;99737.81;5009098;28;20057;-77
2022/12/09 11:20:33;;;;;;;3.53;2.95;;;;;;;18.86;48.88;99728.09;5011488;28;19922;-77
2022/12/09 11:23:10;;;;;;;4.75;3.50;;;;;;;18.88;48.83;99746.72;5012014;28;20050;-79
2022/12/09 11:25:57;;;;;;;3.58;2.90;;;;;;;18.86;49.25;99709.34;5012885;28;20061;-79
2022/12/09 11:28:39;;;;;;;4.22;2.83;;;;;;;18.87;49.18;99699.44;5012830;28;20429;-79
2022/12/09 11:31:17;;;;;;;4.40;3.28;;;;;;;18.87;49.35;99705.66;4982824;28;20446;-81
2022/12/09 11:34:14;;;;;;;3.65;2.80;;;;;;;18.88;49.50;99698.44;4993049;28;20050;-81
2022/12/09 11:36:51;;;;;;;3.78;2.75;;;;;;;18.88;49.28;99685.91;4996896;28;20054;-80
2022/12/09 11:39:32;;;;;;;4.10;3.08;;;;;;;18.87;49.59;99700.28;4997411;28;20498;-80
2022/12/09 11:42:13;;;;;;;3.90;3.15;;;;;;;18.88;49.30;99703.81;4995357;28;20069;-80
2022/12/09 11:44:57;;;;;;;3.95;2.42;;;;;;;18.87;49.29;99694.91;4997634;28;20058;-80
2022/12/09 11:47:32;;;;;;;3.85;2.63;;;;;;;18.89;49.44;99670.66;4997389;28;20065;-80